sensor_id;sensor_type;location;lat;lon;timestamp;P1;durP1;ratioP1;P2;durP2;ratioP2
47053;SDS011;32811;52.382;5.270;2023-12-29T00:01:23;20.70;;;3.75;;
47053;SDS011;32811;52.382;5.270;2023-12-29T00:03:50;14.68;;;3.00;;
47053;SDS011;32811;52.382;5.270;2023-12-29T00:06:16;11.38;;;1.85;;
47053;SDS011;32811;52.382;5.270;2023-12-29T00:08:43;12.00;;;2.20;;
47053;SDS011;32811;52.382;5.270;2023-12-29T00:11:21;8.48;;;1.73;;
47053;SDS011;32811;52.382;5.270;2023-12-29T00:13:48;8.23;;;1.85;;
47053;SDS011;32811;52.382;5.270;2023-12-29T00:16:15;16.77;;;1.80;;
47053;SDS011;32811;52.382;5.270;2023-12-29T00:18:42;16.98;;;3.55;;
47053;SDS011;32811;52.382;5.270;2023-12-29T00:21:09;12.50;;;2.15;;
47053;SDS011;32811;52.382;5.270;2023-12-29T00:23:36;13.43;;;1.75;;
47053;SDS011;32811;52.382;5.270;2023-12-29T00:26:03;9.85;;;2.17;;
47053;SDS011;32811;52.382;5.270;2023-12-29T00:28:30;10.90;;;1.50;;
47053;SDS011;32811;52.382;5.270;2023-12-29T00:30:57;14.57;;;2.17;;
47053;SDS011;32811;52.382;5.270;2023-12-29T00:33:28;13.50;;;3.60;;
47053;SDS011;32811;52.382;5.270;2023-12-29T00:35:56;10.98;;;3.92;;
47053;SDS011;32811;52.382;5.270;2023-12-29T00:38:22;13.63;;;2.13;;
47053;SDS011;32811;52.382;5.270;2023-12-29T00:40:49;12.77;;;1.45;;
47053;SDS011;32811;52.382;5.270;2023-12-29T00:43:15;7.20;;;1.40;;
47053;SDS011;32811;52.382;5.270;2023-12-29T00:45:44;8.82;;;1.65;;
47053;SDS011;32811;52.382;5.270;2023-12-29T00:48:11;14.35;;;2.20;;
47053;SDS011;32811;52.382;5.270;2023-12-29T00:50:38;8.05;;;2.13;;
47053;SDS011;32811;52.382;5.270;2023-12-29T00:53:05;13.35;;;2.22;;
47053;SDS011;32811;52.382;5.270;2023-12-29T00:55:32;12.00;;;1.08;;
47053;SDS011;32811;52.382;5.270;2023-12-29T00:57:59;12.70;;;1.90;;
47053;SDS011;32811;52.382;5.270;2023-12-29T01:00:26;14.63;;;3.05;;
47053;SDS011;32811;52.382;5.270;2023-12-29T01:02:53;19.00;;;1.95;;
47053;SDS011;32811;52.382;5.270;2023-12-29T01:05:20;8.70;;;1.40;;
47053;SDS011;32811;52.382;5.270;2023-12-29T01:07:47;17.90;;;2.67;;
47053;SDS011;32811;52.382;5.270;2023-12-29T01:10:14;9.52;;;1.10;;
47053;SDS011;32811;52.382;5.270;2023-12-29T01:12:41;11.82;;;1.40;;
47053;SDS011;32811;52.382;5.270;2023-12-29T01:15:07;12.48;;;1.33;;
47053;SDS011;32811;52.382;5.270;2023-12-29T01:17:35;14.10;;;2.30;;
47053;SDS011;32811;52.382;5.270;2023-12-29T01:20:01;15.77;;;2.78;;
47053;SDS011;32811;52.382;5.270;2023-12-29T01:22:30;10.77;;;1.38;;
47053;SDS011;32811;52.382;5.270;2023-12-29T01:24:58;11.75;;;3.00;;
47053;SDS011;32811;52.382;5.270;2023-12-29T01:27:25;9.88;;;1.65;;
47053;SDS011;32811;52.382;5.270;2023-12-29T01:29:52;11.80;;;2.53;;
47053;SDS011;32811;52.382;5.270;2023-12-29T01:32:19;11.27;;;1.42;;
47053;SDS011;32811;52.382;5.270;2023-12-29T01:34:46;7.65;;;1.85;;
47053;SDS011;32811;52.382;5.270;2023-12-29T01:37:13;12.77;;;1.77;;
47053;SDS011;32811;52.382;5.270;2023-12-29T01:39:40;15.73;;;1.98;;
47053;SDS011;32811;52.382;5.270;2023-12-29T01:42:07;12.20;;;2.83;;
47053;SDS011;32811;52.382;5.270;2023-12-29T01:44:34;10.90;;;2.15;;
47053;SDS011;32811;52.382;5.270;2023-12-29T01:47:01;11.52;;;2.20;;
47053;SDS011;32811;52.382;5.270;2023-12-29T01:49:31;19.70;;;3.65;;
47053;SDS011;32811;52.382;5.270;2023-12-29T01:52:00;14.23;;;3.10;;
47053;SDS011;32811;52.382;5.270;2023-12-29T01:54:30;15.70;;;1.67;;
47053;SDS011;32811;52.382;5.270;2023-12-29T01:57:01;18.45;;;2.78;;
47053;SDS011;32811;52.382;5.270;2023-12-29T01:59:29;10.43;;;3.25;;
47053;SDS011;32811;52.382;5.270;2023-12-29T02:01:57;11.02;;;1.40;;
47053;SDS011;32811;52.382;5.270;2023-12-29T02:04:28;9.73;;;2.38;;
47053;SDS011;32811;52.382;5.270;2023-12-29T02:06:55;13.45;;;1.60;;
47053;SDS011;32811;52.382;5.270;2023-12-29T02:09:22;10.85;;;1.45;;
47053;SDS011;32811;52.382;5.270;2023-12-29T02:11:49;17.05;;;1.95;;
47053;SDS011;32811;52.382;5.270;2023-12-29T02:14:16;9.63;;;2.65;;
47053;SDS011;32811;52.382;5.270;2023-12-29T02:16:58;10.23;;;1.85;;
47053;SDS011;32811;52.382;5.270;2023-12-29T02:22:11;10.13;;;1.55;;
47053;SDS011;32811;52.382;5.270;2023-12-29T02:24:49;10.00;;;2.55;;
47053;SDS011;32811;52.382;5.270;2023-12-29T02:30:06;15.40;;;1.83;;
47053;SDS011;32811;52.382;5.270;2023-12-29T02:32:38;7.65;;;1.88;;
47053;SDS011;32811;52.382;5.270;2023-12-29T02:35:12;11.40;;;1.55;;
47053;SDS011;32811;52.382;5.270;2023-12-29T02:37:41;15.07;;;1.98;;
47053;SDS011;32811;52.382;5.270;2023-12-29T02:40:09;14.18;;;1.90;;
47053;SDS011;32811;52.382;5.270;2023-12-29T02:42:36;17.80;;;2.08;;
47053;SDS011;32811;52.382;5.270;2023-12-29T02:45:03;13.27;;;2.55;;
47053;SDS011;32811;52.382;5.270;2023-12-29T02:47:30;9.90;;;1.63;;
47053;SDS011;32811;52.382;5.270;2023-12-29T02:49:58;13.25;;;1.60;;
47053;SDS011;32811;52.382;5.270;2023-12-29T02:52:24;7.80;;;2.00;;
47053;SDS011;32811;52.382;5.270;2023-12-29T02:54:51;8.25;;;2.22;;
47053;SDS011;32811;52.382;5.270;2023-12-29T02:57:18;12.32;;;2.47;;
47053;SDS011;32811;52.382;5.270;2023-12-29T02:59:44;12.25;;;2.17;;
47053;SDS011;32811;52.382;5.270;2023-12-29T03:02:11;17.42;;;3.60;;
47053;SDS011;32811;52.382;5.270;2023-12-29T03:04:38;15.70;;;2.05;;
47053;SDS011;32811;52.382;5.270;2023-12-29T03:07:04;9.68;;;1.95;;
47053;SDS011;32811;52.382;5.270;2023-12-29T03:09:31;14.90;;;2.60;;
47053;SDS011;32811;52.382;5.270;2023-12-29T03:11:58;18.85;;;2.72;;
47053;SDS011;32811;52.382;5.270;2023-12-29T03:14:24;10.52;;;2.08;;
47053;SDS011;32811;52.382;5.270;2023-12-29T03:16:51;11.07;;;2.10;;
47053;SDS011;32811;52.382;5.270;2023-12-29T03:19:17;8.88;;;1.73;;
47053;SDS011;32811;52.382;5.270;2023-12-29T03:21:44;15.05;;;2.72;;
47053;SDS011;32811;52.382;5.270;2023-12-29T03:24:11;21.52;;;2.80;;
47053;SDS011;32811;52.382;5.270;2023-12-29T03:26:38;20.05;;;2.88;;
47053;SDS011;32811;52.382;5.270;2023-12-29T03:29:04;13.88;;;2.25;;
47053;SDS011;32811;52.382;5.270;2023-12-29T03:31:31;17.30;;;3.88;;
47053;SDS011;32811;52.382;5.270;2023-12-29T03:33:58;15.02;;;2.45;;
47053;SDS011;32811;52.382;5.270;2023-12-29T03:36:25;18.90;;;2.80;;
47053;SDS011;32811;52.382;5.270;2023-12-29T03:38:51;32.30;;;4.28;;
47053;SDS011;32811;52.382;5.270;2023-12-29T03:41:18;19.23;;;4.22;;
47053;SDS011;32811;52.382;5.270;2023-12-29T03:43:45;19.65;;;2.33;;
47053;SDS011;32811;52.382;5.270;2023-12-29T03:46:18;15.98;;;2.60;;
47053;SDS011;32811;52.382;5.270;2023-12-29T03:48:45;17.85;;;2.00;;
47053;SDS011;32811;52.382;5.270;2023-12-29T03:51:13;20.17;;;3.63;;
47053;SDS011;32811;52.382;5.270;2023-12-29T03:53:40;24.90;;;4.55;;
47053;SDS011;32811;52.382;5.270;2023-12-29T03:56:08;21.65;;;2.75;;
47053;SDS011;32811;52.382;5.270;2023-12-29T03:58:35;21.70;;;3.95;;
47053;SDS011;32811;52.382;5.270;2023-12-29T04:01:02;16.75;;;3.00;;
47053;SDS011;32811;52.382;5.270;2023-12-29T04:03:28;17.48;;;3.08;;
47053;SDS011;32811;52.382;5.270;2023-12-29T04:05:55;33.40;;;5.63;;
47053;SDS011;32811;52.382;5.270;2023-12-29T04:08:22;23.25;;;3.80;;
47053;SDS011;32811;52.382;5.270;2023-12-29T04:10:49;20.10;;;2.17;;
47053;SDS011;32811;52.382;5.270;2023-12-29T04:13:15;25.33;;;2.25;;
47053;SDS011;32811;52.382;5.270;2023-12-29T04:15:42;22.75;;;3.08;;
47053;SDS011;32811;52.382;5.270;2023-12-29T04:18:09;17.55;;;2.47;;
47053;SDS011;32811;52.382;5.270;2023-12-29T04:20:36;17.25;;;3.35;;
47053;SDS011;32811;52.382;5.270;2023-12-29T04:23:03;24.70;;;3.47;;
47053;SDS011;32811;52.382;5.270;2023-12-29T04:25:31;16.70;;;3.30;;
47053;SDS011;32811;52.382;5.270;2023-12-29T04:27:58;21.20;;;2.35;;
47053;SDS011;32811;52.382;5.270;2023-12-29T04:30:25;25.92;;;2.78;;
47053;SDS011;32811;52.382;5.270;2023-12-29T04:32:52;15.70;;;1.90;;
47053;SDS011;32811;52.382;5.270;2023-12-29T04:35:19;18.20;;;2.83;;
47053;SDS011;32811;52.382;5.270;2023-12-29T04:37:45;19.92;;;2.58;;
47053;SDS011;32811;52.382;5.270;2023-12-29T04:40:12;21.98;;;4.30;;
47053;SDS011;32811;52.382;5.270;2023-12-29T04:42:39;27.20;;;3.30;;
47053;SDS011;32811;52.382;5.270;2023-12-29T04:45:06;31.40;;;4.03;;
47053;SDS011;32811;52.382;5.270;2023-12-29T04:47:33;21.65;;;2.88;;
47053;SDS011;32811;52.382;5.270;2023-12-29T04:50:00;20.83;;;3.92;;
47053;SDS011;32811;52.382;5.270;2023-12-29T04:52:27;29.10;;;4.85;;
47053;SDS011;32811;52.382;5.270;2023-12-29T04:54:54;24.13;;;3.30;;
47053;SDS011;32811;52.382;5.270;2023-12-29T04:57:20;25.15;;;4.18;;
47053;SDS011;32811;52.382;5.270;2023-12-29T04:59:47;24.92;;;3.75;;
47053;SDS011;32811;52.382;5.270;2023-12-29T05:02:14;27.08;;;4.25;;
47053;SDS011;32811;52.382;5.270;2023-12-29T05:04:40;31.35;;;4.25;;
47053;SDS011;32811;52.382;5.270;2023-12-29T05:07:08;23.42;;;5.13;;
47053;SDS011;32811;52.382;5.270;2023-12-29T05:09:35;23.02;;;4.28;;
47053;SDS011;32811;52.382;5.270;2023-12-29T05:12:03;26.45;;;3.45;;
47053;SDS011;32811;52.382;5.270;2023-12-29T05:14:30;26.70;;;4.10;;
47053;SDS011;32811;52.382;5.270;2023-12-29T05:16:56;25.63;;;4.38;;
47053;SDS011;32811;52.382;5.270;2023-12-29T05:19:23;29.95;;;4.85;;
47053;SDS011;32811;52.382;5.270;2023-12-29T05:21:50;33.90;;;7.28;;
47053;SDS011;32811;52.382;5.270;2023-12-29T05:24:18;44.20;;;5.88;;
47053;SDS011;32811;52.382;5.270;2023-12-29T05:26:45;31.80;;;4.53;;
47053;SDS011;32811;52.382;5.270;2023-12-29T05:29:11;26.85;;;3.42;;
47053;SDS011;32811;52.382;5.270;2023-12-29T05:31:38;33.15;;;6.20;;
47053;SDS011;32811;52.382;5.270;2023-12-29T05:34:05;31.08;;;4.55;;
47053;SDS011;32811;52.382;5.270;2023-12-29T05:36:34;18.30;;;3.65;;
47053;SDS011;32811;52.382;5.270;2023-12-29T05:39:01;31.60;;;4.90;;
47053;SDS011;32811;52.382;5.270;2023-12-29T05:41:30;35.47;;;5.25;;
47053;SDS011;32811;52.382;5.270;2023-12-29T05:43:57;29.65;;;3.83;;
47053;SDS011;32811;52.382;5.270;2023-12-29T05:46:24;35.40;;;3.83;;
47053;SDS011;32811;52.382;5.270;2023-12-29T05:48:51;29.83;;;4.22;;
47053;SDS011;32811;52.382;5.270;2023-12-29T05:51:21;28.73;;;3.63;;
47053;SDS011;32811;52.382;5.270;2023-12-29T05:53:48;24.02;;;4.97;;
47053;SDS011;32811;52.382;5.270;2023-12-29T05:56:15;26.95;;;4.00;;
47053;SDS011;32811;52.382;5.270;2023-12-29T05:58:41;26.35;;;4.07;;
47053;SDS011;32811;52.382;5.270;2023-12-29T06:01:09;32.70;;;4.50;;
47053;SDS011;32811;52.382;5.270;2023-12-29T06:03:36;32.03;;;5.30;;
47053;SDS011;32811;52.382;5.270;2023-12-29T06:06:03;21.83;;;4.95;;
47053;SDS011;32811;52.382;5.270;2023-12-29T06:08:30;39.00;;;4.05;;
47053;SDS011;32811;52.382;5.270;2023-12-29T06:10:56;40.80;;;5.57;;
47053;SDS011;32811;52.382;5.270;2023-12-29T06:13:23;34.10;;;4.18;;
47053;SDS011;32811;52.382;5.270;2023-12-29T06:15:50;28.42;;;3.85;;
47053;SDS011;32811;52.382;5.270;2023-12-29T06:18:17;26.13;;;3.83;;
47053;SDS011;32811;52.382;5.270;2023-12-29T06:20:43;30.80;;;4.28;;
47053;SDS011;32811;52.382;5.270;2023-12-29T06:23:10;33.03;;;4.50;;
47053;SDS011;32811;52.382;5.270;2023-12-29T06:25:37;22.38;;;3.50;;
47053;SDS011;32811;52.382;5.270;2023-12-29T06:28:06;28.30;;;3.55;;
47053;SDS011;32811;52.382;5.270;2023-12-29T06:30:33;38.17;;;5.78;;
47053;SDS011;32811;52.382;5.270;2023-12-29T06:33:00;33.42;;;3.38;;
47053;SDS011;32811;52.382;5.270;2023-12-29T06:35:27;26.73;;;3.60;;
47053;SDS011;32811;52.382;5.270;2023-12-29T06:37:54;22.55;;;4.00;;
47053;SDS011;32811;52.382;5.270;2023-12-29T06:40:22;24.52;;;3.90;;
47053;SDS011;32811;52.382;5.270;2023-12-29T06:42:49;25.65;;;3.55;;
47053;SDS011;32811;52.382;5.270;2023-12-29T06:45:16;34.10;;;4.50;;
47053;SDS011;32811;52.382;5.270;2023-12-29T06:47:42;19.77;;;3.80;;
47053;SDS011;32811;52.382;5.270;2023-12-29T06:50:09;25.48;;;2.40;;
47053;SDS011;32811;52.382;5.270;2023-12-29T06:52:39;22.65;;;2.90;;
47053;SDS011;32811;52.382;5.270;2023-12-29T06:55:06;19.35;;;2.50;;
47053;SDS011;32811;52.382;5.270;2023-12-29T06:57:34;24.08;;;3.63;;
47053;SDS011;32811;52.382;5.270;2023-12-29T07:00:02;20.90;;;2.75;;
47053;SDS011;32811;52.382;5.270;2023-12-29T07:02:29;17.38;;;2.05;;
47053;SDS011;32811;52.382;5.270;2023-12-29T07:04:57;15.32;;;2.00;;
47053;SDS011;32811;52.382;5.270;2023-12-29T07:07:24;21.63;;;3.95;;
47053;SDS011;32811;52.382;5.270;2023-12-29T07:09:51;14.93;;;3.00;;
47053;SDS011;32811;52.382;5.270;2023-12-29T07:12:17;21.58;;;3.47;;
47053;SDS011;32811;52.382;5.270;2023-12-29T07:14:44;15.27;;;2.17;;
47053;SDS011;32811;52.382;5.270;2023-12-29T07:17:14;16.33;;;2.42;;
47053;SDS011;32811;52.382;5.270;2023-12-29T07:19:40;20.00;;;3.55;;
47053;SDS011;32811;52.382;5.270;2023-12-29T07:22:07;19.73;;;2.90;;
47053;SDS011;32811;52.382;5.270;2023-12-29T07:24:35;17.83;;;2.83;;
47053;SDS011;32811;52.382;5.270;2023-12-29T07:27:03;17.33;;;2.83;;
47053;SDS011;32811;52.382;5.270;2023-12-29T07:29:30;17.15;;;2.83;;
47053;SDS011;32811;52.382;5.270;2023-12-29T07:31:57;17.42;;;2.78;;
47053;SDS011;32811;52.382;5.270;2023-12-29T07:34:24;14.23;;;2.28;;
47053;SDS011;32811;52.382;5.270;2023-12-29T07:36:51;9.40;;;1.70;;
47053;SDS011;32811;52.382;5.270;2023-12-29T07:39:18;17.08;;;2.55;;
47053;SDS011;32811;52.382;5.270;2023-12-29T07:41:46;24.05;;;3.35;;
47053;SDS011;32811;52.382;5.270;2023-12-29T07:44:15;20.15;;;3.03;;
47053;SDS011;32811;52.382;5.270;2023-12-29T07:46:42;16.35;;;2.05;;
47053;SDS011;32811;52.382;5.270;2023-12-29T07:49:13;16.75;;;2.35;;
47053;SDS011;32811;52.382;5.270;2023-12-29T07:51:40;12.30;;;2.38;;
47053;SDS011;32811;52.382;5.270;2023-12-29T07:54:08;17.00;;;2.78;;
47053;SDS011;32811;52.382;5.270;2023-12-29T07:56:35;14.43;;;2.03;;
47053;SDS011;32811;52.382;5.270;2023-12-29T07:59:04;11.50;;;2.35;;
47053;SDS011;32811;52.382;5.270;2023-12-29T08:01:31;9.68;;;2.30;;
47053;SDS011;32811;52.382;5.270;2023-12-29T08:03:57;15.40;;;1.65;;
47053;SDS011;32811;52.382;5.270;2023-12-29T08:06:24;12.40;;;1.58;;
47053;SDS011;32811;52.382;5.270;2023-12-29T08:08:52;11.23;;;2.22;;
47053;SDS011;32811;52.382;5.270;2023-12-29T08:11:18;9.38;;;1.30;;
47053;SDS011;32811;52.382;5.270;2023-12-29T08:13:46;16.25;;;1.77;;
47053;SDS011;32811;52.382;5.270;2023-12-29T08:16:15;8.45;;;1.60;;
47053;SDS011;32811;52.382;5.270;2023-12-29T08:18:44;9.40;;;1.90;;
47053;SDS011;32811;52.382;5.270;2023-12-29T08:21:16;6.72;;;1.05;;
47053;SDS011;32811;52.382;5.270;2023-12-29T08:23:45;9.52;;;1.40;;
47053;SDS011;32811;52.382;5.270;2023-12-29T08:26:12;8.32;;;1.25;;
47053;SDS011;32811;52.382;5.270;2023-12-29T08:28:39;14.93;;;2.10;;
47053;SDS011;32811;52.382;5.270;2023-12-29T08:31:06;13.85;;;1.55;;
47053;SDS011;32811;52.382;5.270;2023-12-29T08:33:34;10.40;;;2.55;;
47053;SDS011;32811;52.382;5.270;2023-12-29T08:36:02;14.18;;;1.83;;
47053;SDS011;32811;52.382;5.270;2023-12-29T08:38:30;14.40;;;2.63;;
47053;SDS011;32811;52.382;5.270;2023-12-29T08:40:58;9.25;;;1.95;;
47053;SDS011;32811;52.382;5.270;2023-12-29T08:43:25;16.75;;;2.28;;
47053;SDS011;32811;52.382;5.270;2023-12-29T08:45:52;20.65;;;1.73;;
47053;SDS011;32811;52.382;5.270;2023-12-29T08:48:19;15.57;;;2.65;;
47053;SDS011;32811;52.382;5.270;2023-12-29T08:50:47;12.88;;;1.58;;
47053;SDS011;32811;52.382;5.270;2023-12-29T08:53:13;12.57;;;1.80;;
47053;SDS011;32811;52.382;5.270;2023-12-29T08:55:41;15.20;;;1.33;;
47053;SDS011;32811;52.382;5.270;2023-12-29T08:58:08;11.27;;;1.35;;
47053;SDS011;32811;52.382;5.270;2023-12-29T09:00:35;9.32;;;1.48;;
47053;SDS011;32811;52.382;5.270;2023-12-29T09:03:02;10.77;;;1.38;;
47053;SDS011;32811;52.382;5.270;2023-12-29T09:05:31;11.35;;;1.85;;
47053;SDS011;32811;52.382;5.270;2023-12-29T09:07:58;15.85;;;2.50;;
47053;SDS011;32811;52.382;5.270;2023-12-29T09:10:25;9.75;;;1.95;;
47053;SDS011;32811;52.382;5.270;2023-12-29T09:12:52;9.82;;;1.40;;
47053;SDS011;32811;52.382;5.270;2023-12-29T09:15:19;8.82;;;1.35;;
47053;SDS011;32811;52.382;5.270;2023-12-29T09:17:46;8.13;;;1.75;;
47053;SDS011;32811;52.382;5.270;2023-12-29T09:20:13;7.25;;;2.33;;
47053;SDS011;32811;52.382;5.270;2023-12-29T09:22:41;6.13;;;1.13;;
47053;SDS011;32811;52.382;5.270;2023-12-29T09:25:08;7.75;;;1.50;;
47053;SDS011;32811;52.382;5.270;2023-12-29T09:27:35;7.53;;;1.10;;
47053;SDS011;32811;52.382;5.270;2023-12-29T09:30:02;4.70;;;0.93;;
47053;SDS011;32811;52.382;5.270;2023-12-29T09:32:30;7.10;;;1.58;;
47053;SDS011;32811;52.382;5.270;2023-12-29T09:34:57;9.77;;;1.45;;
47053;SDS011;32811;52.382;5.270;2023-12-29T09:37:23;11.82;;;1.60;;
47053;SDS011;32811;52.382;5.270;2023-12-29T09:39:50;9.45;;;1.52;;
47053;SDS011;32811;52.382;5.270;2023-12-29T09:42:20;12.93;;;2.55;;
47053;SDS011;32811;52.382;5.270;2023-12-29T09:44:51;10.75;;;3.70;;
47053;SDS011;32811;52.382;5.270;2023-12-29T09:47:22;11.93;;;1.40;;
47053;SDS011;32811;52.382;5.270;2023-12-29T09:49:56;7.82;;;1.13;;
47053;SDS011;32811;52.382;5.270;2023-12-29T09:52:23;9.00;;;1.40;;
47053;SDS011;32811;52.382;5.270;2023-12-29T09:54:51;9.88;;;1.15;;
47053;SDS011;32811;52.382;5.270;2023-12-29T09:57:19;9.77;;;1.00;;
47053;SDS011;32811;52.382;5.270;2023-12-29T09:59:46;9.75;;;1.27;;
47053;SDS011;32811;52.382;5.270;2023-12-29T10:02:18;10.57;;;1.55;;
47053;SDS011;32811;52.382;5.270;2023-12-29T10:04:48;10.38;;;1.58;;
47053;SDS011;32811;52.382;5.270;2023-12-29T10:07:18;7.53;;;1.17;;
47053;SDS011;32811;52.382;5.270;2023-12-29T10:09:50;7.10;;;1.20;;
47053;SDS011;32811;52.382;5.270;2023-12-29T10:12:21;8.30;;;0.93;;
47053;SDS011;32811;52.382;5.270;2023-12-29T10:14:48;7.00;;;0.88;;
47053;SDS011;32811;52.382;5.270;2023-12-29T10:22:51;13.50;;;3.05;;
47053;SDS011;32811;52.382;5.270;2023-12-29T10:25:24;9.18;;;1.13;;
47053;SDS011;32811;52.382;5.270;2023-12-29T10:27:51;17.33;;;1.95;;
47053;SDS011;32811;52.382;5.270;2023-12-29T10:30:21;6.78;;;1.30;;
47053;SDS011;32811;52.382;5.270;2023-12-29T10:32:59;12.00;;;2.10;;
47053;SDS011;32811;52.382;5.270;2023-12-29T10:35:27;21.92;;;4.07;;
47053;SDS011;32811;52.382;5.270;2023-12-29T10:38:09;12.25;;;1.80;;
47053;SDS011;32811;52.382;5.270;2023-12-29T10:40:37;13.35;;;2.13;;
47053;SDS011;32811;52.382;5.270;2023-12-29T10:43:04;20.58;;;2.78;;
47053;SDS011;32811;52.382;5.270;2023-12-29T10:45:33;13.20;;;2.05;;
47053;SDS011;32811;52.382;5.270;2023-12-29T10:48:01;15.55;;;1.80;;
47053;SDS011;32811;52.382;5.270;2023-12-29T10:50:28;18.25;;;2.13;;
47053;SDS011;32811;52.382;5.270;2023-12-29T10:53:11;13.40;;;1.40;;
47053;SDS011;32811;52.382;5.270;2023-12-29T10:55:38;16.42;;;1.95;;
47053;SDS011;32811;52.382;5.270;2023-12-29T10:58:05;15.27;;;3.45;;
47053;SDS011;32811;52.382;5.270;2023-12-29T11:00:32;16.67;;;2.90;;
47053;SDS011;32811;52.382;5.270;2023-12-29T11:02:59;12.88;;;2.25;;
47053;SDS011;32811;52.382;5.270;2023-12-29T11:05:29;9.13;;;1.27;;
47053;SDS011;32811;52.382;5.270;2023-12-29T11:07:56;10.57;;;1.85;;
47053;SDS011;32811;52.382;5.270;2023-12-29T11:10:25;11.80;;;2.10;;
47053;SDS011;32811;52.382;5.270;2023-12-29T11:12:52;9.48;;;1.27;;
47053;SDS011;32811;52.382;5.270;2023-12-29T11:15:21;14.13;;;2.00;;
47053;SDS011;32811;52.382;5.270;2023-12-29T11:17:51;7.57;;;1.27;;
47053;SDS011;32811;52.382;5.270;2023-12-29T11:20:19;8.85;;;2.38;;
47053;SDS011;32811;52.382;5.270;2023-12-29T11:22:46;12.00;;;1.58;;
47053;SDS011;32811;52.382;5.270;2023-12-29T11:25:13;12.70;;;1.92;;
47053;SDS011;32811;52.382;5.270;2023-12-29T11:27:42;14.18;;;1.70;;
47053;SDS011;32811;52.382;5.270;2023-12-29T11:30:09;11.13;;;2.08;;
47053;SDS011;32811;52.382;5.270;2023-12-29T11:41:09;19.83;;;2.33;;
47053;SDS011;32811;52.382;5.270;2023-12-29T11:43:35;16.55;;;1.90;;
47053;SDS011;32811;52.382;5.270;2023-12-29T11:46:02;10.38;;;2.25;;
47053;SDS011;32811;52.382;5.270;2023-12-29T11:51:32;24.30;;;3.78;;
47053;SDS011;32811;52.382;5.270;2023-12-29T11:56:30;12.93;;;2.88;;
47053;SDS011;32811;52.382;5.270;2023-12-29T11:59:17;19.73;;;2.13;;
47053;SDS011;32811;52.382;5.270;2023-12-29T12:01:50;15.55;;;3.17;;
47053;SDS011;32811;52.382;5.270;2023-12-29T12:04:37;15.30;;;2.70;;
47053;SDS011;32811;52.382;5.270;2023-12-29T12:07:12;12.93;;;1.95;;
47053;SDS011;32811;52.382;5.270;2023-12-29T12:09:43;19.73;;;2.03;;
47053;SDS011;32811;52.382;5.270;2023-12-29T12:12:10;21.38;;;3.00;;
47053;SDS011;32811;52.382;5.270;2023-12-29T12:14:43;22.17;;;3.33;;
47053;SDS011;32811;52.382;5.270;2023-12-29T12:17:33;19.83;;;1.73;;
47053;SDS011;32811;52.382;5.270;2023-12-29T12:20:09;12.10;;;2.15;;
47053;SDS011;32811;52.382;5.270;2023-12-29T12:22:36;17.30;;;2.28;;
47053;SDS011;32811;52.382;5.270;2023-12-29T12:25:05;21.92;;;1.60;;
47053;SDS011;32811;52.382;5.270;2023-12-29T12:27:33;18.48;;;2.53;;
47053;SDS011;32811;52.382;5.270;2023-12-29T12:30:03;14.90;;;1.80;;
47053;SDS011;32811;52.382;5.270;2023-12-29T12:32:31;19.65;;;2.92;;
47053;SDS011;32811;52.382;5.270;2023-12-29T12:35:00;11.73;;;1.95;;
47053;SDS011;32811;52.382;5.270;2023-12-29T12:37:27;16.63;;;1.92;;
47053;SDS011;32811;52.382;5.270;2023-12-29T12:39:55;10.05;;;1.85;;
47053;SDS011;32811;52.382;5.270;2023-12-29T12:42:22;6.88;;;1.40;;
47053;SDS011;32811;52.382;5.270;2023-12-29T12:44:54;9.57;;;1.90;;
47053;SDS011;32811;52.382;5.270;2023-12-29T12:47:41;13.85;;;1.95;;
47053;SDS011;32811;52.382;5.270;2023-12-29T12:50:12;12.55;;;2.92;;
47053;SDS011;32811;52.382;5.270;2023-12-29T12:52:42;10.45;;;2.65;;
47053;SDS011;32811;52.382;5.270;2023-12-29T12:55:09;15.48;;;1.75;;
47053;SDS011;32811;52.382;5.270;2023-12-29T12:57:37;9.98;;;1.45;;
47053;SDS011;32811;52.382;5.270;2023-12-29T13:00:04;13.77;;;1.85;;
47053;SDS011;32811;52.382;5.270;2023-12-29T13:02:32;13.25;;;2.22;;
47053;SDS011;32811;52.382;5.270;2023-12-29T13:05:00;15.82;;;2.97;;
47053;SDS011;32811;52.382;5.270;2023-12-29T13:07:31;13.55;;;1.90;;
47053;SDS011;32811;52.382;5.270;2023-12-29T13:09:58;11.88;;;2.25;;
47053;SDS011;32811;52.382;5.270;2023-12-29T13:12:25;10.20;;;1.67;;
47053;SDS011;32811;52.382;5.270;2023-12-29T13:14:51;11.10;;;1.63;;
47053;SDS011;32811;52.382;5.270;2023-12-29T13:17:18;10.55;;;1.98;;
47053;SDS011;32811;52.382;5.270;2023-12-29T13:22:27;11.95;;;1.20;;
47053;SDS011;32811;52.382;5.270;2023-12-29T13:24:55;11.75;;;0.90;;
47053;SDS011;32811;52.382;5.270;2023-12-29T13:27:21;10.40;;;1.73;;
47053;SDS011;32811;52.382;5.270;2023-12-29T13:29:48;10.45;;;1.48;;
47053;SDS011;32811;52.382;5.270;2023-12-29T13:32:16;13.23;;;1.23;;
47053;SDS011;32811;52.382;5.270;2023-12-29T13:34:53;15.48;;;1.98;;
47053;SDS011;32811;52.382;5.270;2023-12-29T13:38:04;11.85;;;1.33;;
47053;SDS011;32811;52.382;5.270;2023-12-29T13:43:30;11.95;;;1.38;;
47053;SDS011;32811;52.382;5.270;2023-12-29T13:46:00;13.27;;;1.50;;
47053;SDS011;32811;52.382;5.270;2023-12-29T13:48:28;13.55;;;3.30;;
47053;SDS011;32811;52.382;5.270;2023-12-29T13:50:56;13.98;;;1.13;;
47053;SDS011;32811;52.382;5.270;2023-12-29T13:53:23;17.63;;;2.40;;
47053;SDS011;32811;52.382;5.270;2023-12-29T13:55:50;12.48;;;1.40;;
47053;SDS011;32811;52.382;5.270;2023-12-29T13:58:16;15.57;;;2.35;;
47053;SDS011;32811;52.382;5.270;2023-12-29T14:00:44;11.98;;;2.17;;
47053;SDS011;32811;52.382;5.270;2023-12-29T14:03:22;10.90;;;1.50;;
47053;SDS011;32811;52.382;5.270;2023-12-29T14:05:56;10.60;;;1.48;;
47053;SDS011;32811;52.382;5.270;2023-12-29T14:08:31;17.02;;;3.40;;
47053;SDS011;32811;52.382;5.270;2023-12-29T14:11:00;8.13;;;1.65;;
47053;SDS011;32811;52.382;5.270;2023-12-29T14:13:27;14.38;;;2.05;;
47053;SDS011;32811;52.382;5.270;2023-12-29T14:15:53;6.38;;;1.30;;
47053;SDS011;32811;52.382;5.270;2023-12-29T14:18:38;11.88;;;1.73;;
47053;SDS011;32811;52.382;5.270;2023-12-29T14:21:22;9.32;;;1.30;;
47053;SDS011;32811;52.382;5.270;2023-12-29T14:24:12;10.98;;;1.67;;
47053;SDS011;32811;52.382;5.270;2023-12-29T14:29:20;9.15;;;0.90;;
47053;SDS011;32811;52.382;5.270;2023-12-29T14:31:47;13.68;;;1.85;;
47053;SDS011;32811;52.382;5.270;2023-12-29T14:34:14;10.73;;;1.42;;
47053;SDS011;32811;52.382;5.270;2023-12-29T14:36:42;6.20;;;1.90;;
47053;SDS011;32811;52.382;5.270;2023-12-29T14:39:09;4.20;;;0.80;;
47053;SDS011;32811;52.382;5.270;2023-12-29T14:41:37;13.35;;;1.08;;
47053;SDS011;32811;52.382;5.270;2023-12-29T14:44:04;4.18;;;0.95;;
47053;SDS011;32811;52.382;5.270;2023-12-29T14:46:31;8.13;;;0.73;;
47053;SDS011;32811;52.382;5.270;2023-12-29T14:49:00;8.18;;;1.08;;
47053;SDS011;32811;52.382;5.270;2023-12-29T14:51:27;6.82;;;0.85;;
47053;SDS011;32811;52.382;5.270;2023-12-29T14:53:54;4.30;;;0.70;;
47053;SDS011;32811;52.382;5.270;2023-12-29T14:56:21;5.50;;;0.60;;
47053;SDS011;32811;52.382;5.270;2023-12-29T14:58:47;6.07;;;0.82;;
47053;SDS011;32811;52.382;5.270;2023-12-29T15:01:14;5.43;;;1.33;;
47053;SDS011;32811;52.382;5.270;2023-12-29T15:03:41;10.38;;;1.83;;
47053;SDS011;32811;52.382;5.270;2023-12-29T15:06:08;5.78;;;1.58;;
47053;SDS011;32811;52.382;5.270;2023-12-29T15:08:35;4.57;;;1.00;;
47053;SDS011;32811;52.382;5.270;2023-12-29T15:11:06;6.47;;;0.85;;
47053;SDS011;32811;52.382;5.270;2023-12-29T15:13:34;5.70;;;1.00;;
47053;SDS011;32811;52.382;5.270;2023-12-29T15:16:01;2.83;;;0.60;;
47053;SDS011;32811;52.382;5.270;2023-12-29T15:18:33;8.15;;;0.93;;